Delta Pioneer — SYIO — position and weather

sailwx.info

Track history (hours):
 
Tides and Currents Weather Stations Pressure Air Temp Water Temp Dewpoint Dewpoint Depression Visibility Wind Speed Wind Dir Waves Ship Positions

Delta Pioneer

Last reported at 2016-Jun-29 06:33 UTC. Time now 2016-Jun-29 16:31 UTC.
Position N 57°03' E 019°26'.

Length 249 m; draft 14.2 m.

Type: Ship (hazmat cat C). MMSI: 240244000.

Date/timePositionNaut miles runAvg speedWind from/ knotsBaromVisibWave heightAir tempDewpointWater temp
2016-Jun-29 06:33N 57°03' E 019°26'1212.3
2016-Jun-29 05:33N 57°14' E 019°37'1212.4
2016-Jun-29 04:33N 57°25' E 019°47'11712.4
2016-Jun-28 19:09N 59°08' E 021°34'2012.2
2016-Jun-28 17:33N 59°20' E 022°03'1212.5
2016-Jun-28 16:33N 59°27' E 022°23'1212.3
2016-Jun-28 15:33N 59°32' E 022°45'1312.4
2016-Jun-28 14:31N 59°36' E 023°10'1212.4
2016-Jun-28 13:33N 59°39' E 023°32'1212.4
2016-Jun-28 12:33N 59°43' E 023°56'1212.1
2016-Jun-28 11:33N 59°46' E 024°19'1312.4
2016-Jun-28 10:32N 59°49' E 024°43'4112.3
2016-Jun-28 07:10N 59°57' E 026°04'812.4
2016-Jun-28 06:33N 59°59' E 026°19'2411.8
2016-Jun-28 04:31N 60°01' E 027°07'1412.1
2016-Jun-28 03:21N 60°08' E 027°32'2011.2
2016-Jun-28 01:33N 60°08' E 028°12'1010.5
2016-Jun-28 00:33N 60°08' E 028°33'10 8.8
2016-Jun-27 23:28N 60°14' E 028°47'7 0.6
2016-Jun-27 13:21N 60°20' E 028°42'0 0.0
2016-Jun-27 12:18N 60°20' E 028°42'0 0.0
2016-Jun-27 11:24N 60°20' E 028°42'0 0.0
2016-Jun-27 10:12N 60°20' E 028°42'0 0.0
2016-Jun-27 09:24N 60°20' E 028°42'0 0.0
2016-Jun-27 02:30N 60°20' E 028°42'0 0.0
2016-Jun-27 01:33N 60°20' E 028°42'0 0.0
2016-Jun-27 00:33N 60°20' E 028°42'0 0.0
2016-Jun-26 23:33N 60°20' E 028°42'0 0.0
2016-Jun-26 22:33N 60°20' E 028°42'0 0.0
2016-Jun-26 21:24N 60°20' E 028°42'0 0.0
2016-Jun-26 20:24N 60°20' E 028°42'0 0.0
2016-Jun-26 19:27N 60°20' E 028°42'0 0.1
2016-Jun-26 18:33N 60°20' E 028°42'5 4.6
2016-Jun-26 17:31N 60°16' E 028°47'9 8.9
2016-Jun-26 16:33N 60°08' E 028°41'8 8.0
2016-Jun-26 15:33N 60°02' E 028°31'1 0.9
2016-Jun-26 14:29N 60°01' E 028°29'0 0.0
2016-Jun-26 13:29N 60°01' E 028°29'0 0.0
2016-Jun-26 12:33N 60°01' E 028°29'0 0.1
2016-Jun-26 11:32N 60°01' E 028°29'0 0.0
2016-Jun-26 10:32N 60°01' E 028°29'0 0.0
2016-Jun-26 09:29N 60°01' E 028°29'0 0.0
2016-Jun-26 08:32N 60°01' E 028°29'0 0.0
2016-Jun-26 07:32N 60°01' E 028°29'0 0.0
2016-Jun-26 06:32N 60°01' E 028°29'0 0.1
2016-Jun-26 05:23N 60°01' E 028°30'0 0.0
2016-Jun-26 04:23N 60°01' E 028°30'0 0.0
2016-Jun-26 03:26N 60°01' E 028°30'0 0.1
2016-Jun-26 02:26N 60°01' E 028°30'0 0.0
2016-Jun-26 01:29N 60°01' E 028°30'0 0.0
2016-Jun-26 00:29N 60°01' E 028°29'0 0.0
2016-Jun-25 23:29N 60°01' E 028°29'0 0.0
2016-Jun-25 22:32N 60°01' E 028°29'0 0.1
2016-Jun-25 21:32N 60°01' E 028°30'0 0.1
2016-Jun-25 20:32N 60°01' E 028°30'0 0.1
2016-Jun-25 19:32N 60°01' E 028°30'0 0.0
2016-Jun-25 18:32N 60°01' E 028°30'0 0.0
2016-Jun-25 17:32N 60°01' E 028°30'0 0.0
2016-Jun-25 16:32N 60°02' E 028°30'0 0.1
2016-Jun-25 15:23N 60°01' E 028°30'0 0.1
2016-Jun-25 14:26N 60°01' E 028°30'0 0.0
2016-Jun-25 13:26N 60°01' E 028°30'0 0.0
2016-Jun-25 12:26N 60°01' E 028°30'0 0.0
2016-Jun-25 11:29N 60°01' E 028°30'0 0.1
2016-Jun-25 10:29N 60°01' E 028°30'0 0.0
2016-Jun-25 09:29N 60°01' E 028°30'0 0.1
2016-Jun-25 08:32N 60°01' E 028°30'1 1.2
2016-Jun-25 07:33N 60°02' E 028°30'7 7.2
2016-Jun-25 06:33N 60°06' E 028°18'9 9.5
2016-Jun-25 05:33N 60°09' E 027°60'9 8.9
2016-Jun-25 04:33N 60°09' E 027°42'10 9.8
2016-Jun-25 03:33N 60°04' E 027°25'10 9.9
2016-Jun-25 02:33N 59°59' E 027°08'11 9.4
2016-Jun-25 01:23N 59°59' E 026°46'22 9.8
2016-Jun-24 23:08N 59°54' E 026°03'710.1
2016-Jun-24 22:29N 59°53' E 025°50'910.0
2016-Jun-24 21:33N 59°51' E 025°32'2310.6
2016-Jun-24 19:24N 59°46' E 024°47'1211.7
2016-Jun-24 18:24N 59°44' E 024°25'1211.6
2016-Jun-24 17:22N 59°40' E 024°02'1011.7
2016-Jun-24 16:33N 59°37' E 023°44'1211.6
2016-Jun-24 15:32N 59°33' E 023°22'30811.3
2016-Jun-23 12:11N 55°48' E 016°49'711.8
2016-Jun-23 11:33N 55°46' E 016°37'1211.7
2016-Jun-23 10:32N 55°43' E 016°16'1211.7
2016-Jun-23 09:33N 55°40' E 015°56'1211.8
2016-Jun-23 08:33N 55°37' E 015°36'1211.9
2016-Jun-23 07:33N 55°33' E 015°16'2412.0
2016-Jun-23 05:34N 55°23' E 014°38'1211.5
2016-Jun-23 04:33N 55°14' E 014°25'1111.0
2016-Jun-23 03:33N 55°10' E 014°07'1111.5
2016-Jun-23 02:33N 55°11' E 013°47'1211.8
2016-Jun-23 01:33N 55°12' E 013°26'1211.7
2016-Jun-23 00:33N 55°13' E 013°06'1211.7
2016-Jun-22 23:33N 55°16' E 012°45'9 8.5
2016-Jun-22 22:33N 55°23' E 012°39'8 8.4
2016-Jun-22 21:33N 55°31' E 012°45'8 7.7
2016-Jun-22 20:33N 55°37' E 012°53'1010.2
2016-Jun-22 19:33N 55°47' E 012°49'1212.0
2016-Jun-22 18:33N 55°58' E 012°41'1211.8
2016-Jun-22 17:33N 56°08' E 012°29'1111.4
2016-Jun-22 16:33N 56°14' E 012°12'2311.3
2016-Jun-22 14:33N 56°35' E 011°56'1211.8
2016-Jun-22 13:33N 56°46' E 011°51'1312.7
2016-Jun-22 12:33N 56°58' E 011°44'1211.9
2016-Jun-22 11:33N 57°09' E 011°36'1110.7
2016-Jun-22 10:33N 57°19' E 011°30'1010.4
2016-Jun-22 09:33N 57°29' E 011°22'1111.1
2016-Jun-22 08:33N 57°36' E 011°06'1111.2
2016-Jun-22 07:33N 57°44' E 010°51'1110.6
2016-Jun-22 06:33N 57°47' E 010°32'1212.4
2016-Jun-22 05:33N 57°47' E 010°09'1212.0
2016-Jun-22 04:33N 57°47' E 009°47'1211.8
2016-Jun-22 03:33N 57°41' E 009°27'1211.8
2016-Jun-22 02:33N 57°35' E 009°08'1211.9
2016-Jun-22 01:33N 57°30' E 008°48'1211.8
2016-Jun-22 00:33N 57°24' E 008°29'9711.7
2016-Jun-21 16:13N 56°03' E 006°51'911.6
2016-Jun-21 15:25N 55°55' E 006°42'1011.6
2016-Jun-21 14:32N 55°47' E 006°32'1111.6
2016-Jun-21 13:33N 55°37' E 006°21'2411.8
2016-Jun-21 11:33N 55°18' E 005°58'8811.8
2016-Jun-21 04:03N 54°02' E 004°40'611.8
2016-Jun-21 03:33N 53°57' E 004°36'1211.5
2016-Jun-21 02:32N 53°48' E 004°23'1111.2
2016-Jun-21 01:33N 53°41' E 004°09'1111.1
2016-Jun-21 00:33N 53°34' E 003°54'1210.8
2016-Jun-20 23:26N 53°24' E 003°41'12010.1
2016-Jun-20 11:33N 51°35' E 002°22'1211.7
2016-Jun-20 10:33N 51°26' E 002°10'1111.5
2016-Jun-20 09:33N 51°15' E 002°05'1110.6
2016-Jun-20 08:33N 51°09' E 001°51'10 9.6
2016-Jun-20 07:34N 51°02' E 001°40'10 9.6
2016-Jun-20 06:33N 50°55' E 001°31'9 9.1
2016-Jun-20 05:33N 50°46' E 001°25'45 8.8
2016-Jun-20 00:30N 50°24' E 000°24'9 9.5
2016-Jun-19 23:33N 50°22' E 000°10'1010.2
2016-Jun-19 22:33N 50°19' W 000°05'1111.0
2016-Jun-19 21:33N 50°15' W 000°22'1411.9
2016-Jun-19 20:22N 50°12' W 000°43'8212.1
2016-Jun-19 13:33N 49°50' W 002°46'2110.3
2016-Jun-19 11:33N 49°41' W 003°14'  
Track history (hours):
 
Tides and Currents Weather Stations Pressure Air Temp Water Temp Dewpoint Dewpoint Depression Visibility Wind Speed Wind Dir Waves Ship Positions

Delta Pioneer

Last reported at 2016-Jun-29 06:33 UTC. Time now 2016-Jun-29 16:31 UTC.
Position N 57°03' E 019°26'.

Length 249 m; draft 14.2 m.

Type: Ship (hazmat cat C). MMSI: 240244000.

Date/timePositionNaut miles runAvg speedWind from/ knotsBaromVisibWave heightAir tempDewpointWater temp
2016-Jun-29 06:33N 57°03' E 019°26'1212.3
2016-Jun-29 05:33N 57°14' E 019°37'1212.4
2016-Jun-29 04:33N 57°25' E 019°47'11712.4
2016-Jun-28 19:09N 59°08' E 021°34'2012.2
2016-Jun-28 17:33N 59°20' E 022°03'1212.5
2016-Jun-28 16:33N 59°27' E 022°23'1212.3
2016-Jun-28 15:33N 59°32' E 022°45'1312.4
2016-Jun-28 14:31N 59°36' E 023°10'1212.4
2016-Jun-28 13:33N 59°39' E 023°32'1212.4
2016-Jun-28 12:33N 59°43' E 023°56'1212.1
2016-Jun-28 11:33N 59°46' E 024°19'1312.4
2016-Jun-28 10:32N 59°49' E 024°43'4112.3
2016-Jun-28 07:10N 59°57' E 026°04'812.4
2016-Jun-28 06:33N 59°59' E 026°19'2411.8
2016-Jun-28 04:31N 60°01' E 027°07'1412.1
2016-Jun-28 03:21N 60°08' E 027°32'2011.2
2016-Jun-28 01:33N 60°08' E 028°12'1010.5
2016-Jun-28 00:33N 60°08' E 028°33'10 8.8
2016-Jun-27 23:28N 60°14' E 028°47'7 0.6
2016-Jun-27 13:21N 60°20' E 028°42'0 0.0
2016-Jun-27 12:18N 60°20' E 028°42'0 0.0
2016-Jun-27 11:24N 60°20' E 028°42'0 0.0
2016-Jun-27 10:12N 60°20' E 028°42'0 0.0
2016-Jun-27 09:24N 60°20' E 028°42'0 0.0
2016-Jun-27 02:30N 60°20' E 028°42'0 0.0
2016-Jun-27 01:33N 60°20' E 028°42'0 0.0
2016-Jun-27 00:33N 60°20' E 028°42'0 0.0
2016-Jun-26 23:33N 60°20' E 028°42'0 0.0
2016-Jun-26 22:33N 60°20' E 028°42'0 0.0
2016-Jun-26 21:24N 60°20' E 028°42'0 0.0
2016-Jun-26 20:24N 60°20' E 028°42'0 0.0
2016-Jun-26 19:27N 60°20' E 028°42'0 0.1
2016-Jun-26 18:33N 60°20' E 028°42'5 4.6
2016-Jun-26 17:31N 60°16' E 028°47'9 8.9
2016-Jun-26 16:33N 60°08' E 028°41'8 8.0
2016-Jun-26 15:33N 60°02' E 028°31'1 0.9
2016-Jun-26 14:29N 60°01' E 028°29'0 0.0
2016-Jun-26 13:29N 60°01' E 028°29'0 0.0
2016-Jun-26 12:33N 60°01' E 028°29'0 0.1
2016-Jun-26 11:32N 60°01' E 028°29'0 0.0
2016-Jun-26 10:32N 60°01' E 028°29'0 0.0
2016-Jun-26 09:29N 60°01' E 028°29'0 0.0
2016-Jun-26 08:32N 60°01' E 028°29'0 0.0
2016-Jun-26 07:32N 60°01' E 028°29'0 0.0
2016-Jun-26 06:32N 60°01' E 028°29'0 0.1
2016-Jun-26 05:23N 60°01' E 028°30'0 0.0
2016-Jun-26 04:23N 60°01' E 028°30'0 0.0
2016-Jun-26 03:26N 60°01' E 028°30'0 0.1
2016-Jun-26 02:26N 60°01' E 028°30'0 0.0
2016-Jun-26 01:29N 60°01' E 028°30'0 0.0
2016-Jun-26 00:29N 60°01' E 028°29'0 0.0
2016-Jun-25 23:29N 60°01' E 028°29'0 0.0
2016-Jun-25 22:32N 60°01' E 028°29'0 0.1
2016-Jun-25 21:32N 60°01' E 028°30'0 0.1
2016-Jun-25 20:32N 60°01' E 028°30'0 0.1
2016-Jun-25 19:32N 60°01' E 028°30'0 0.0
2016-Jun-25 18:32N 60°01' E 028°30'0 0.0
2016-Jun-25 17:32N 60°01' E 028°30'0 0.0
2016-Jun-25 16:32N 60°02' E 028°30'0 0.1
2016-Jun-25 15:23N 60°01' E 028°30'0 0.1
2016-Jun-25 14:26N 60°01' E 028°30'0 0.0
2016-Jun-25 13:26N 60°01' E 028°30'0 0.0
2016-Jun-25 12:26N 60°01' E 028°30'0 0.0
2016-Jun-25 11:29N 60°01' E 028°30'0 0.1
2016-Jun-25 10:29N 60°01' E 028°30'0 0.0
2016-Jun-25 09:29N 60°01' E 028°30'0 0.1
2016-Jun-25 08:32N 60°01' E 028°30'1 1.2
2016-Jun-25 07:33N 60°02' E 028°30'7 7.2
2016-Jun-25 06:33N 60°06' E 028°18'9 9.5
2016-Jun-25 05:33N 60°09' E 027°60'9 8.9
2016-Jun-25 04:33N 60°09' E 027°42'10 9.8
2016-Jun-25 03:33N 60°04' E 027°25'10 9.9
2016-Jun-25 02:33N 59°59' E 027°08'11 9.4
2016-Jun-25 01:23N 59°59' E 026°46'22 9.8
2016-Jun-24 23:08N 59°54' E 026°03'710.1
2016-Jun-24 22:29N 59°53' E 025°50'910.0
2016-Jun-24 21:33N 59°51' E 025°32'2310.6
2016-Jun-24 19:24N 59°46' E 024°47'1211.7
2016-Jun-24 18:24N 59°44' E 024°25'1211.6
2016-Jun-24 17:22N 59°40' E 024°02'1011.7
2016-Jun-24 16:33N 59°37' E 023°44'1211.6
2016-Jun-24 15:32N 59°33' E 023°22'30811.3
2016-Jun-23 12:11N 55°48' E 016°49'711.8
2016-Jun-23 11:33N 55°46' E 016°37'1211.7
2016-Jun-23 10:32N 55°43' E 016°16'1211.7
2016-Jun-23 09:33N 55°40' E 015°56'1211.8
2016-Jun-23 08:33N 55°37' E 015°36'1211.9
2016-Jun-23 07:33N 55°33' E 015°16'2412.0
2016-Jun-23 05:34N 55°23' E 014°38'1211.5
2016-Jun-23 04:33N 55°14' E 014°25'1111.0
2016-Jun-23 03:33N 55°10' E 014°07'1111.5
2016-Jun-23 02:33N 55°11' E 013°47'1211.8
2016-Jun-23 01:33N 55°12' E 013°26'1211.7
2016-Jun-23 00:33N 55°13' E 013°06'1211.7
2016-Jun-22 23:33N 55°16' E 012°45'9 8.5
2016-Jun-22 22:33N 55°23' E 012°39'8 8.4
2016-Jun-22 21:33N 55°31' E 012°45'8 7.7
2016-Jun-22 20:33N 55°37' E 012°53'1010.2
2016-Jun-22 19:33N 55°47' E 012°49'1212.0
2016-Jun-22 18:33N 55°58' E 012°41'1211.8
2016-Jun-22 17:33N 56°08' E 012°29'1111.4
2016-Jun-22 16:33N 56°14' E 012°12'2311.3
2016-Jun-22 14:33N 56°35' E 011°56'1211.8
2016-Jun-22 13:33N 56°46' E 011°51'1312.7
2016-Jun-22 12:33N 56°58' E 011°44'1211.9
2016-Jun-22 11:33N 57°09' E 011°36'1110.7
2016-Jun-22 10:33N 57°19' E 011°30'1010.4
2016-Jun-22 09:33N 57°29' E 011°22'1111.1
2016-Jun-22 08:33N 57°36' E 011°06'1111.2
2016-Jun-22 07:33N 57°44' E 010°51'1110.6
2016-Jun-22 06:33N 57°47' E 010°32'1212.4
2016-Jun-22 05:33N 57°47' E 010°09'1212.0
2016-Jun-22 04:33N 57°47' E 009°47'1211.8
2016-Jun-22 03:33N 57°41' E 009°27'1211.8
2016-Jun-22 02:33N 57°35' E 009°08'1211.9
2016-Jun-22 01:33N 57°30' E 008°48'1211.8
2016-Jun-22 00:33N 57°24' E 008°29'9711.7
2016-Jun-21 16:13N 56°03' E 006°51'911.6
2016-Jun-21 15:25N 55°55' E 006°42'1011.6
2016-Jun-21 14:32N 55°47' E 006°32'1111.6
2016-Jun-21 13:33N 55°37' E 006°21'2411.8
2016-Jun-21 11:33N 55°18' E 005°58'8811.8
2016-Jun-21 04:03N 54°02' E 004°40'611.8
2016-Jun-21 03:33N 53°57' E 004°36'1211.5
2016-Jun-21 02:32N 53°48' E 004°23'1111.2
2016-Jun-21 01:33N 53°41' E 004°09'1111.1
2016-Jun-21 00:33N 53°34' E 003°54'1210.8
2016-Jun-20 23:26N 53°24' E 003°41'12010.1
2016-Jun-20 11:33N 51°35' E 002°22'1211.7
2016-Jun-20 10:33N 51°26' E 002°10'1111.5
2016-Jun-20 09:33N 51°15' E 002°05'1110.6
2016-Jun-20 08:33N 51°09' E 001°51'10 9.6
2016-Jun-20 07:34N 51°02' E 001°40'10 9.6
2016-Jun-20 06:33N 50°55' E 001°31'9 9.1
2016-Jun-20 05:33N 50°46' E 001°25'45 8.8
2016-Jun-20 00:30N 50°24' E 000°24'9 9.5
2016-Jun-19 23:33N 50°22' E 000°10'1010.2
2016-Jun-19 22:33N 50°19' W 000°05'1111.0
2016-Jun-19 21:33N 50°15' W 000°22'1411.9
2016-Jun-19 20:22N 50°12' W 000°43'8212.1
2016-Jun-19 13:33N 49°50' W 002°46'2110.3
2016-Jun-19 11:33N 49°41' W 003°14'  

Dump ship's entire track history